Time;durP1;ratioP1;P1;durP2;ratioP2;P2;SDS_P1;SDS_P2;PMS_P1;PMS_P2;Temp;Humidity;BMP_temperature;BMP_pressure;BME280_temperature;BME280_humidity;BME280_pressure;Samples;Min_cycle;Max_cycle;Signal;HPM_P1;HPM_P2
2023/03/23 00:02:05;;;;;;;2.23;1.57;;;14.70;92.80;;;;;;5838467;24;20482;-83
2023/03/23 00:04:34;;;;;;;1.60;1.50;;;14.70;92.90;;;;;;5833189;24;20457;-84
2023/03/23 00:07:02;;;;;;;1.60;1.50;;;14.70;93.00;;;;;;5835539;24;20450;-73
2023/03/23 00:09:34;;;;;;;2.43;1.37;;;14.60;92.90;;;;;;5861046;24;20483;-71
2023/03/23 00:12:05;;;;;;;1.80;1.37;;;14.70;93.00;;;;;;5863123;24;20938;-72
2023/03/23 00:14:40;;;;;;;2.23;1.77;;;14.70;93.30;;;;;;5864744;24;20449;-71
2023/03/23 00:17:10;;;;;;;1.40;1.30;;;14.60;93.30;;;;;;5867645;24;20578;-72
2023/03/23 00:19:45;;;;;;;1.90;1.43;;;14.60;93.10;;;;;;5886350;24;20476;-72
2023/03/23 00:22:14;;;;;;;1.40;1.30;;;14.60;93.30;;;;;;5865682;24;20504;-71
2023/03/23 00:24:41;;;;;;;1.80;1.40;;;14.60;92.80;;;;;;5864274;24;20453;-72
2023/03/23 00:27:12;;;;;;;2.90;1.30;;;14.60;93.00;;;;;;5865559;24;20528;-72
2023/03/23 00:29:40;;;;;;;1.30;1.20;;;14.70;93.10;;;;;;5864499;24;20522;-72
2023/03/23 00:32:12;;;;;;;1.63;1.17;;;14.70;93.20;;;;;;5852552;24;20450;-72
2023/03/23 00:34:43;;;;;;;1.50;1.20;;;14.70;93.20;;;;;;5856121;24;20445;-71
2023/03/23 00:37:09;;;;;;;1.60;1.50;;;14.70;93.30;;;;;;5865174;24;20783;-72
2023/03/23 00:39:45;;;;;;;1.50;1.40;;;14.70;93.40;;;;;;5863872;24;20469;-72
2023/03/23 00:42:14;;;;;;;1.43;1.33;;;14.80;93.40;;;;;;5864241;24;20616;-72
2023/03/23 00:44:41;;;;;;;1.43;1.20;;;14.80;93.40;;;;;;5863910;24;20536;-72
2023/03/23 00:47:09;;;;;;;1.17;1.07;;;14.80;93.40;;;;;;5855889;24;20863;-72
2023/03/23 00:49:37;;;;;;;1.57;1.47;;;14.80;93.60;;;;;;5863724;24;20549;-72
2023/03/23 00:52:06;;;;;;;1.40;1.30;;;14.80;93.60;;;;;;5865886;24;20886;-72
2023/03/23 00:54:33;;;;;;;1.67;1.57;;;14.80;93.70;;;;;;5859037;24;20440;-72
2023/03/23 00:57:01;;;;;;;1.67;1.57;;;14.80;93.80;;;;;;5868377;24;20927;-72
2023/03/23 00:59:28;;;;;;;2.17;1.60;;;14.80;93.80;;;;;;5868644;24;20533;-72
2023/03/23 01:01:55;;;;;;;1.30;1.20;;;14.80;94.00;;;;;;5871244;24;20469;-72
2023/03/23 01:04:22;;;;;;;1.83;1.30;;;14.80;94.00;;;;;;5859098;24;20449;-72
2023/03/23 01:06:51;;;;;;;2.00;1.20;;;14.80;94.00;;;;;;5866076;24;20541;-72
2023/03/23 01:09:21;;;;;;;4.10;1.20;;;14.80;94.00;;;;;;5865716;24;20469;-72
2023/03/23 01:11:49;;;;;;;1.80;1.50;;;14.80;93.90;;;;;;5864699;24;20798;-72
2023/03/23 01:14:18;;;;;;;1.50;1.33;;;14.80;94.00;;;;;;5864489;24;20990;-72
2023/03/23 01:16:45;;;;;;;2.90;1.50;;;14.90;94.10;;;;;;5865844;24;20489;-72
2023/03/23 01:19:13;;;;;;;1.40;1.30;;;14.90;94.10;;;;;;5864879;24;20803;-71
2023/03/23 01:21:40;;;;;;;1.40;1.30;;;14.90;94.10;;;;;;5849806;24;21084;-71
2023/03/23 01:24:08;;;;;;;1.60;1.47;;;14.80;94.10;;;;;;5859185;24;20456;-72
2023/03/23 01:26:37;;;;;;;1.50;1.40;;;14.80;94.20;;;;;;5858671;24;20529;-72
2023/03/23 01:29:04;;;;;;;1.43;1.33;;;14.80;94.20;;;;;;5865618;24;20493;-72
2023/03/23 01:31:31;;;;;;;1.40;1.20;;;14.80;94.10;;;;;;5864985;24;20536;-72
2023/03/23 01:33:58;;;;;;;1.50;1.40;;;14.80;94.00;;;;;;5862412;24;21059;-72
2023/03/23 01:36:28;;;;;;;2.20;1.33;;;14.80;93.90;;;;;;5855424;24;20524;-72
2023/03/23 01:38:57;;;;;;;1.30;1.20;;;14.70;93.90;;;;;;5865011;24;20990;-72
2023/03/23 01:41:25;;;;;;;2.00;1.27;;;14.80;93.90;;;;;;5864276;24;20510;-72
2023/03/23 01:44:02;;;;;;;1.40;1.30;;;14.80;93.90;;;;;;5861268;24;20478;-72
2023/03/23 01:46:31;;;;;;;1.60;1.50;;;14.80;94.00;;;;;;5854268;24;20500;-72
2023/03/23 01:49:06;;;;;;;2.97;1.50;;;14.80;93.90;;;;;;5854211;24;20489;-72
2023/03/23 01:51:34;;;;;;;2.10;1.30;;;14.80;94.10;;;;;;5865912;24;20580;-72
2023/03/23 01:54:05;;;;;;;1.70;1.10;;;14.80;94.30;;;;;;5861873;24;20452;-72
2023/03/23 01:56:40;;;;;;;2.00;1.30;;;14.70;94.40;;;;;;5865051;24;20476;-72
2023/03/23 01:59:10;;;;;;;3.83;1.57;;;14.80;94.60;;;;;;5866086;24;20611;-72
2023/03/23 02:01:40;;;;;;;3.27;2.00;;;14.70;94.90;;;;;;5866215;24;20443;-72
2023/03/23 02:04:08;;;;;;;4.00;2.40;;;14.60;94.90;;;;;;5855495;24;20625;-72
2023/03/23 02:06:35;;;;;;;2.97;2.47;;;14.30;95.00;;;;;;5860898;24;20452;-72
2023/03/23 02:09:03;;;;;;;3.27;2.50;;;14.10;95.40;;;;;;5861103;24;20891;-72
2023/03/23 02:11:30;;;;;;;2.60;2.00;;;14.00;95.60;;;;;;5864989;24;20520;-72
2023/03/23 02:13:57;;;;;;;2.17;1.97;;;13.90;96.00;;;;;;5859646;24;20965;-72
2023/03/23 02:16:35;;;;;;;3.97;2.30;;;13.80;96.00;;;;;;5864684;24;20442;-72
2023/03/23 02:19:32;;;;;;;2.03;1.83;;;13.70;96.30;;;;;;5862770;24;20508;-72
2023/03/23 02:22:18;;;;;;;2.80;1.70;;;13.70;96.80;;;;;;5860481;24;20983;-72
2023/03/23 02:24:59;;;;;;;2.60;2.33;;;13.50;97.00;;;;;;5860337;24;20528;-72
2023/03/23 02:27:51;;;;;;;2.13;1.90;;;13.50;97.00;;;;;;5862850;24;20522;-72
2023/03/23 02:30:40;;;;;;;2.40;1.60;;;13.40;97.00;;;;;;5864106;24;20535;-72
2023/03/23 02:33:41;;;;;;;2.70;2.17;;;13.40;96.80;;;;;;5848279;24;20536;-72
2023/03/23 02:36:18;;;;;;;1.90;1.70;;;13.40;97.00;;;;;;5853712;24;20608;-72
2023/03/23 02:38:52;;;;;;;2.07;1.90;;;13.40;97.00;;;;;;5857080;24;20499;-71
2023/03/23 02:41:25;;;;;;;2.30;2.10;;;13.40;96.70;;;;;;5863578;24;20477;-71
2023/03/23 02:43:53;;;;;;;1.70;1.60;;;13.40;96.90;;;;;;5861541;24;20477;-72
2023/03/23 02:46:22;;;;;;;2.40;1.90;;;13.40;96.70;;;;;;5863188;24;20561;-71
2023/03/23 02:48:52;;;;;;;2.03;1.47;;;13.40;96.60;;;;;;5863773;24;20491;-72
2023/03/23 02:51:21;;;;;;;1.60;1.50;;;13.40;96.60;;;;;;5862942;24;20542;-72
2023/03/23 02:53:51;;;;;;;1.60;1.50;;;13.50;96.70;;;;;;5870485;24;20476;-72
2023/03/23 02:56:19;;;;;;;2.10;1.90;;;13.50;96.70;;;;;;5858474;24;20510;-72
2023/03/23 02:58:46;;;;;;;2.20;1.90;;;13.50;96.70;;;;;;5854593;24;21004;-72
2023/03/23 03:01:54;;;;;;;1.83;1.70;;;13.50;96.80;;;;;;5851813;24;20808;-72
2023/03/23 03:04:25;;;;;;;2.90;1.90;;;13.50;96.80;;;;;;5851776;24;20533;-72
2023/03/23 03:09:45;;;;;;;1.87;1.43;;;13.50;97.00;;;;;;6140730;23;20575;-71
2023/03/23 03:12:21;;;;;;;2.03;1.50;;;13.40;97.50;;;;;;6147451;23;20536;-71
2023/03/23 03:14:56;;;;;;;1.80;1.70;;;13.30;97.60;;;;;;6135148;23;20999;-71
2023/03/23 03:17:26;;;;;;;1.97;1.77;;;13.20;97.70;;;;;;6133965;23;20464;-72
2023/03/23 03:19:58;;;;;;;2.87;2.00;;;13.20;97.90;;;;;;6136688;23;20528;-71
2023/03/23 03:22:29;;;;;;;2.30;2.10;;;13.20;97.90;;;;;;6136263;23;20519;-71
2023/03/23 03:24:59;;;;;;;2.70;2.47;;;13.20;97.90;;;;;;6129996;23;20944;-71
2023/03/23 03:27:27;;;;;;;4.47;2.70;;;13.20;98.00;;;;;;6140657;23;20436;-71
2023/03/23 03:29:58;;;;;;;4.87;2.60;;;13.20;98.10;;;;;;6144557;23;20438;-71
2023/03/23 03:32:31;;;;;;;2.17;2.00;;;13.20;98.30;;;;;;6141375;23;20449;-71
2023/03/23 03:35:01;;;;;;;2.77;2.40;;;13.20;98.30;;;;;;6125934;23;20449;-71
2023/03/23 03:37:33;;;;;;;1.90;1.80;;;13.10;98.50;;;;;;6135935;23;20682;-71
2023/03/23 03:40:02;;;;;;;2.23;2.10;;;13.10;98.70;;;;;;6137827;23;20917;-71
2023/03/23 03:42:30;;;;;;;1.90;1.70;;;13.10;98.60;;;;;;6127799;23;20443;-72
2023/03/23 03:44:57;;;;;;;2.70;2.17;;;13.10;98.70;;;;;;6135146;23;20454;-72
2023/03/23 03:47:25;;;;;;;2.23;1.90;;;13.20;98.70;;;;;;6143543;23;20465;-72
2023/03/23 03:49:52;;;;;;;2.63;1.97;;;13.20;98.80;;;;;;6134361;23;20438;-72
2023/03/23 03:52:18;;;;;;;1.83;1.70;;;13.20;98.80;;;;;;6136883;23;20516;-72
2023/03/23 03:54:46;;;;;;;2.47;1.90;;;13.20;98.90;;;;;;6126769;23;20528;-72
2023/03/23 03:57:14;;;;;;;2.13;1.50;;;13.20;99.20;;;;;;6124646;23;20430;-72
2023/03/23 03:59:41;;;;;;;2.10;1.90;;;13.20;99.30;;;;;;6143135;23;20490;-72
2023/03/23 04:02:09;;;;;;;2.90;1.90;;;13.20;99.40;;;;;;6144613;23;20457;-72
2023/03/23 04:04:35;;;;;;;3.50;2.10;;;13.20;99.50;;;;;;6125233;23;20517;-71
2023/03/23 04:07:02;;;;;;;2.17;1.83;;;13.10;99.40;;;;;;6124643;23;20469;-71
2023/03/23 04:09:31;;;;;;;2.13;1.93;;;13.10;99.50;;;;;;6139178;23;20507;-72
2023/03/23 04:11:58;;;;;;;1.90;1.80;;;13.20;99.60;;;;;;6126747;23;21098;-71
2023/03/23 04:14:26;;;;;;;1.90;1.73;;;13.20;99.50;;;;;;6125457;23;20526;-72
2023/03/23 04:16:56;;;;;;;2.60;1.63;;;13.20;99.40;;;;;;6127805;23;20438;-72
2023/03/23 04:19:23;;;;;;;2.30;1.90;;;13.30;99.50;;;;;;6122127;23;20889;-71
2023/03/23 04:21:50;;;;;;;2.13;1.73;;;13.30;99.50;;;;;;6120605;23;20481;-72
2023/03/23 04:24:21;;;;;;;1.50;1.40;;;13.40;99.40;;;;;;6118087;23;20529;-72
2023/03/23 04:26:48;;;;;;;1.93;1.70;;;13.50;99.40;;;;;;6119443;23;20436;-71
2023/03/23 04:29:15;;;;;;;1.80;1.70;;;13.60;99.10;;;;;;6137707;23;20474;-72
2023/03/23 04:31:44;;;;;;;1.60;1.50;;;13.70;99.20;;;;;;6139103;23;20526;-72
2023/03/23 04:34:13;;;;;;;2.67;1.60;;;13.90;98.60;;;;;;6137061;23;20441;-71
2023/03/23 04:36:40;;;;;;;1.53;1.43;;;14.00;98.60;;;;;;6122840;23;20443;-72
2023/03/23 04:39:09;;;;;;;1.60;1.50;;;14.10;98.80;;;;;;6128851;23;20791;-73
2023/03/23 04:41:38;;;;;;;1.70;1.60;;;14.10;98.90;;;;;;6122040;23;20499;-73
2023/03/23 04:44:05;;;;;;;2.33;2.10;;;14.10;98.70;;;;;;6109072;23;20451;-72
2023/03/23 04:46:33;;;;;;;2.47;2.27;;;14.10;98.70;;;;;;6123199;23;20514;-71
2023/03/23 04:49:01;;;;;;;1.70;1.60;;;14.00;99.00;;;;;;6119151;23;20473;-70
2023/03/23 04:51:31;;;;;;;2.03;1.67;;;14.20;99.00;;;;;;6120397;23;20426;-71
2023/03/23 04:53:58;;;;;;;1.80;1.70;;;14.00;99.00;;;;;;6120139;23;21021;-71
2023/03/23 04:56:25;;;;;;;1.80;1.70;;;13.80;98.80;;;;;;6119396;23;20455;-70
2023/03/23 04:58:52;;;;;;;1.70;1.60;;;14.00;99.20;;;;;;6118416;23;20457;-71
2023/03/23 05:01:19;;;;;;;3.10;1.70;;;14.00;99.20;;;;;;6122642;23;20433;-71
2023/03/23 05:03:46;;;;;;;2.40;1.80;;;13.90;99.40;;;;;;6117112;23;20448;-72
2023/03/23 05:06:14;;;;;;;3.67;1.80;;;14.00;99.40;;;;;;6091533;23;20425;-71
2023/03/23 05:08:42;;;;;;;1.80;1.70;;;13.90;99.20;;;;;;6096323;23;20906;-71
2023/03/23 05:11:09;;;;;;;2.00;1.90;;;13.90;99.20;;;;;;6129919;23;20531;-72
2023/03/23 05:13:36;;;;;;;2.17;1.97;;;13.80;99.40;;;;;;6124512;23;20519;-72
2023/03/23 05:16:07;;;;;;;2.67;1.90;;;13.80;99.40;;;;;;6117426;23;20463;-71
2023/03/23 05:18:34;;;;;;;2.43;2.20;;;13.70;99.60;;;;;;6120680;23;20485;-71
2023/03/23 05:21:01;;;;;;;2.10;1.93;;;13.70;99.70;;;;;;6120567;23;20454;-72
2023/03/23 05:23:33;;;;;;;3.13;2.00;;;13.60;99.80;;;;;;6119165;23;20829;-71
2023/03/23 05:26:02;;;;;;;1.80;1.70;;;13.50;99.90;;;;;;6128584;23;20421;-71
2023/03/23 05:28:30;;;;;;;2.33;2.13;;;13.50;99.90;;;;;;6119372;23;20472;-71
2023/03/23 05:30:57;;;;;;;2.27;2.07;;;13.40;99.90;;;;;;6118457;23;20441;-71
2023/03/23 05:33:25;;;;;;;2.13;2.00;;;13.40;99.90;;;;;;6115964;23;20497;-72
2023/03/23 05:35:52;;;;;;;3.57;1.90;;;13.40;99.90;;;;;;6103972;23;21927;-72
2023/03/23 05:38:19;;;;;;;3.17;2.60;;;13.40;99.90;;;;;;6113408;23;20486;-72
2023/03/23 05:40:48;;;;;;;2.30;2.07;;;13.40;99.90;;;;;;6115584;23;20914;-73
2023/03/23 05:43:16;;;;;;;2.13;1.50;;;13.60;99.90;;;;;;6102155;23;20444;-72
2023/03/23 05:45:43;;;;;;;2.03;1.83;;;13.70;99.70;;;;;;6116272;23;20895;-71
2023/03/23 05:48:09;;;;;;;1.90;1.70;;;13.80;99.20;;;;;;6124958;23;20948;-71
2023/03/23 05:50:37;;;;;;;2.10;1.63;;;14.00;99.40;;;;;;6128959;23;20436;-71
2023/03/23 05:53:04;;;;;;;1.63;1.53;;;14.10;99.00;;;;;;6112068;23;20523;-71
2023/03/23 05:55:31;;;;;;;2.17;1.63;;;14.30;98.40;;;;;;6117719;23;20437;-71
2023/03/23 05:57:59;;;;;;;1.90;1.80;;;14.40;98.30;;;;;;6118097;23;20825;-72
2023/03/23 06:00:29;;;;;;;2.40;1.40;;;14.60;97.90;;;;;;6116309;23;20525;-70
2023/03/23 06:02:57;;;;;;;4.13;1.40;;;14.70;97.70;;;;;;6115733;23;20429;-78
2023/03/23 06:05:25;;;;;;;3.80;2.00;;;14.80;97.50;;;;;;6104255;23;20445;-73
2023/03/23 06:07:53;;;;;;;1.63;1.53;;;14.90;97.50;;;;;;6111364;23;20540;-72
2023/03/23 06:10:20;;;;;;;2.20;1.67;;;14.90;97.30;;;;;;6112092;23;20469;-72
2023/03/23 06:12:47;;;;;;;1.77;1.67;;;15.00;97.20;;;;;;6110436;23;20509;-72
2023/03/23 06:15:15;;;;;;;2.43;1.53;;;15.00;97.30;;;;;;6116582;23;20441;-72
2023/03/23 06:17:43;;;;;;;1.60;1.50;;;15.00;97.10;;;;;;6118478;23;20477;-72
2023/03/23 06:20:12;;;;;;;2.13;1.83;;;15.00;97.20;;;;;;6119872;23;20512;-72
2023/03/23 06:22:40;;;;;;;2.20;2.00;;;15.00;97.10;;;;;;6113076;23;21232;-72
2023/03/23 06:25:11;;;;;;;2.03;1.83;;;15.00;97.00;;;;;;6114144;23;20440;-72
2023/03/23 06:27:38;;;;;;;2.50;1.93;;;15.00;97.10;;;;;;6113375;23;20465;-72
2023/03/23 06:30:06;;;;;;;2.50;1.47;;;15.00;96.90;;;;;;6117979;23;20480;-72
2023/03/23 06:32:35;;;;;;;2.23;1.77;;;15.00;97.00;;;;;;6134426;23;20457;-72
2023/03/23 06:35:03;;;;;;;1.90;1.70;;;15.00;97.00;;;;;;6136706;23;20512;-72
2023/03/23 06:37:30;;;;;;;2.90;1.50;;;15.00;97.20;;;;;;6118462;23;20464;-73
2023/03/23 06:39:58;;;;;;;1.77;1.63;;;15.00;97.20;;;;;;6116809;23;20436;-73
2023/03/23 06:42:25;;;;;;;2.10;2.00;;;15.00;97.20;;;;;;6121762;23;20578;-72
2023/03/23 06:44:56;;;;;;;2.30;1.70;;;15.00;97.30;;;;;;6119840;23;20512;-72
2023/03/23 06:47:23;;;;;;;2.27;1.90;;;15.00;97.20;;;;;;6116104;23;20892;-72
2023/03/23 06:49:52;;;;;;;2.13;1.70;;;15.20;97.40;;;;;;6119724;23;20496;-72
2023/03/23 06:52:19;;;;;;;2.23;1.60;;;15.00;97.40;;;;;;6128858;23;20511;-72
2023/03/23 06:54:46;;;;;;;2.23;1.70;;;15.00;97.30;;;;;;6124283;23;20442;-72
2023/03/23 06:57:13;;;;;;;2.00;1.70;;;15.10;97.30;;;;;;6116533;23;20523;-72
2023/03/23 06:59:41;;;;;;;3.33;1.93;;;15.20;97.40;;;;;;6114333;23;20793;-71
2023/03/23 07:02:09;;;;;;;2.17;1.90;;;15.20;97.30;;;;;;6115241;23;20441;-72
2023/03/23 07:04:37;;;;;;;3.07;2.10;;;15.30;97.30;;;;;;6118723;23;20544;-72
2023/03/23 07:07:06;;;;;;;4.80;2.10;;;15.30;97.40;;;;;;6118376;23;20453;-72
2023/03/23 07:09:33;;;;;;;1.90;1.70;;;15.40;97.60;;;;;;6118155;23;20952;-72
2023/03/23 07:12:00;;;;;;;3.57;1.83;;;15.40;97.60;;;;;;6120207;23;20433;-71
2023/03/23 07:14:27;;;;;;;2.97;2.07;;;15.40;97.60;;;;;;6117931;23;20433;-72
2023/03/23 07:16:54;;;;;;;2.10;1.77;;;15.30;97.70;;;;;;6109771;23;20565;-72
2023/03/23 07:19:22;;;;;;;6.57;2.00;;;15.40;97.70;;;;;;6118881;23;20422;-72
2023/03/23 07:21:49;;;;;;;4.13;1.87;;;15.30;97.90;;;;;;6119367;23;20522;-72
2023/03/23 07:24:18;;;;;;;4.53;2.10;;;15.30;98.00;;;;;;6119491;23;20475;-72
2023/03/23 07:26:45;;;;;;;2.17;1.97;;;15.30;98.10;;;;;;6114789;23;20976;-71
2023/03/23 07:29:12;;;;;;;2.37;2.17;;;15.30;98.20;;;;;;6117905;23;20445;-72
2023/03/23 07:31:39;;;;;;;2.80;1.50;;;15.20;98.40;;;;;;6114547;23;20444;-72
2023/03/23 07:34:07;;;;;;;2.10;1.97;;;15.20;98.70;;;;;;6102982;23;20472;-72
2023/03/23 07:36:37;;;;;;;3.20;2.17;;;15.20;99.10;;;;;;6116355;23;20433;-72
2023/03/23 07:39:06;;;;;;;2.00;1.90;;;15.20;99.30;;;;;;6117618;23;20959;-72
2023/03/23 07:41:35;;;;;;;4.43;2.10;;;15.20;99.00;;;;;;6118921;23;20516;-72
2023/03/23 07:44:02;;;;;;;3.20;2.23;;;15.20;99.20;;;;;;6126065;23;20441;-70
2023/03/23 07:46:29;;;;;;;2.63;2.43;;;15.20;99.50;;;;;;6118221;23;20426;-72
2023/03/23 07:48:57;;;;;;;2.60;2.27;;;15.30;99.90;;;;;;6115455;23;20479;-72
2023/03/23 07:51:24;;;;;;;2.23;2.00;;;15.30;99.90;;;;;;6119165;23;20433;-72
2023/03/23 07:53:52;;;;;;;3.30;2.23;;;15.30;99.90;;;;;;6117210;23;20456;-72
2023/03/23 07:56:20;;;;;;;5.20;2.30;;;15.40;99.90;;;;;;6119516;23;20445;-72
2023/03/23 07:58:51;;;;;;;2.50;2.30;;;15.50;99.90;;;;;;6116199;23;20441;-72
2023/03/23 08:01:18;;;;;;;2.60;2.40;;;15.60;99.60;;;;;;6100379;23;20417;-72
2023/03/23 08:03:45;;;;;;;5.63;2.53;;;15.70;99.80;;;;;;6117462;23;20952;-72
2023/03/23 08:06:12;;;;;;;2.30;1.93;;;15.70;99.80;;;;;;6118872;23;20433;-72
2023/03/23 08:08:40;;;;;;;4.47;2.20;;;15.80;99.90;;;;;;6118349;23;20532;-72
2023/03/23 08:11:07;;;;;;;2.47;2.07;;;15.90;99.90;;;;;;6118924;23;20462;-72
2023/03/23 08:13:35;;;;;;;3.27;1.70;;;15.90;99.90;;;;;;6114591;23;20437;-73
2023/03/23 08:16:04;;;;;;;2.30;1.80;;;15.80;99.90;;;;;;6103729;23;20433;-72
2023/03/23 08:18:31;;;;;;;2.07;1.87;;;15.90;99.90;;;;;;6115286;23;20453;-72
2023/03/23 08:20:59;;;;;;;1.80;1.70;;;15.90;99.90;;;;;;6110579;23;20521;-72
2023/03/23 08:23:26;;;;;;;2.23;1.70;;;15.90;99.90;;;;;;6095079;23;20508;-72
2023/03/23 08:25:54;;;;;;;1.90;1.57;;;15.80;99.90;;;;;;6106969;23;20669;-72
2023/03/23 08:28:21;;;;;;;2.27;1.90;;;15.90;99.90;;;;;;6119432;23;20449;-72
2023/03/23 08:30:48;;;;;;;3.30;2.00;;;15.90;99.90;;;;;;6117393;23;21045;-73
2023/03/23 08:33:17;;;;;;;6.13;2.17;;;16.00;99.90;;;;;;6119033;23;20834;-72
2023/03/23 08:35:44;;;;;;;2.40;1.90;;;15.90;99.90;;;;;;6103433;23;20430;-72
2023/03/23 08:38:12;;;;;;;2.33;1.90;;;15.90;99.90;;;;;;6131714;23;20461;-73
2023/03/23 08:40:40;;;;;;;2.00;1.80;;;15.90;99.90;;;;;;6142408;23;20468;-72
2023/03/23 08:43:07;;;;;;;3.43;2.20;;;15.80;99.90;;;;;;6147994;23;20427;-73
2023/03/23 08:45:34;;;;;;;2.30;1.90;;;15.80;99.90;;;;;;6150238;23;20478;-73
2023/03/23 08:48:01;;;;;;;1.90;1.80;;;15.80;99.90;;;;;;6150110;23;20472;-72
2023/03/23 08:50:30;;;;;;;2.07;1.87;;;15.70;99.90;;;;;;6140133;23;20512;-73
2023/03/23 08:52:58;;;;;;;2.30;2.10;;;15.60;99.90;;;;;;6120007;23;20767;-73
2023/03/23 08:55:26;;;;;;;3.67;1.87;;;15.60;99.90;;;;;;6120767;23;20417;-73
2023/03/23 08:57:53;;;;;;;3.33;2.13;;;15.50;99.90;;;;;;6120611;23;20779;-73
2023/03/23 09:00:24;;;;;;;2.90;1.90;;;15.50;99.90;;;;;;6140955;23;20511;-73
2023/03/23 09:02:53;;;;;;;2.40;2.00;;;15.50;99.90;;;;;;6149811;23;20448;-73
2023/03/23 09:05:24;;;;;;;2.77;2.03;;;15.40;99.90;;;;;;6131854;23;20506;-72
2023/03/23 09:07:54;;;;;;;2.23;2.10;;;15.40;99.90;;;;;;6120014;23;20518;-73
2023/03/23 09:10:24;;;;;;;1.80;1.70;;;15.40;99.90;;;;;;6139790;23;20976;-73
2023/03/23 09:12:54;;;;;;;2.77;2.17;;;15.40;99.90;;;;;;6150013;23;20433;-72
2023/03/23 09:15:22;;;;;;;2.53;2.13;;;15.40;99.90;;;;;;6150547;23;20417;-73
2023/03/23 09:17:50;;;;;;;2.77;2.00;;;15.40;99.90;;;;;;6149873;23;20440;-73
2023/03/23 09:20:23;;;;;;;2.30;2.10;;;15.40;99.90;;;;;;6145010;23;20527;-73
2023/03/23 09:22:56;;;;;;;2.90;2.10;;;15.40;99.90;;;;;;6149660;23;20500;-73
2023/03/23 09:25:26;;;;;;;3.00;2.00;;;15.40;99.90;;;;;;6145422;23;20481;-73
2023/03/23 09:27:56;;;;;;;2.97;1.93;;;15.40;99.90;;;;;;6126557;23;20488;-73
2023/03/23 09:30:26;;;;;;;2.73;2.20;;;15.40;99.90;;;;;;6149794;23;20547;-73
2023/03/23 09:32:53;;;;;;;2.33;2.13;;;15.40;99.90;;;;;;6149760;23;20433;-73
2023/03/23 09:35:22;;;;;;;3.60;2.70;;;15.40;99.90;;;;;;6125285;23;20491;-73
2023/03/23 09:37:50;;;;;;;3.53;2.10;;;15.50;99.90;;;;;;6148678;23;20460;-73
2023/03/23 09:40:21;;;;;;;2.50;1.90;;;15.50;99.90;;;;;;6149984;23;20440;-73
2023/03/23 09:43:05;;;;;;;2.00;1.90;;;15.60;99.90;;;;;;6149499;23;20412;-72
2023/03/23 09:45:38;;;;;;;3.53;2.10;;;15.60;99.90;;;;;;6147851;23;20417;-73
2023/03/23 09:48:22;;;;;;;3.23;2.33;;;15.60;99.90;;;;;;6150082;23;20436;-73
2023/03/23 09:50:53;;;;;;;3.00;2.27;;;15.60;99.90;;;;;;6143917;23;20465;-72
2023/03/23 09:53:28;;;;;;;1.93;1.83;;;15.60;99.90;;;;;;6120010;23;20493;-73
2023/03/23 09:55:57;;;;;;;2.37;2.13;;;15.60;99.90;;;;;;6124380;23;20446;-73
2023/03/23 09:58:31;;;;;;;2.37;2.17;;;15.70;99.90;;;;;;6150163;23;20413;-73
2023/03/23 10:01:03;;;;;;;1.90;1.80;;;15.60;99.90;;;;;;6149861;23;20930;-72
2023/03/23 10:03:36;;;;;;;2.30;1.83;;;15.70;99.90;;;;;;6149260;23;20413;-73
2023/03/23 10:06:04;;;;;;;2.23;1.90;;;15.70;99.90;;;;;;6148041;23;20448;-73
2023/03/23 10:08:34;;;;;;;4.13;1.50;;;15.70;99.90;;;;;;6135291;23;20520;-73
2023/03/23 10:11:05;;;;;;;1.63;1.53;;;15.60;99.90;;;;;;6120511;23;20464;-73
2023/03/23 10:13:51;;;;;;;1.70;1.53;;;15.40;99.90;;;;;;6120494;23;20426;-72
2023/03/23 10:16:24;;;;;;;3.37;1.47;;;15.40;99.90;;;;;;6127706;23;20965;-73
2023/03/23 10:18:59;;;;;;;3.43;1.53;;;15.30;99.90;;;;;;6149616;23;20405;-73
2023/03/23 10:21:29;;;;;;;1.60;1.50;;;15.30;99.90;;;;;;6150042;23;20447;-72
2023/03/23 10:24:00;;;;;;;2.10;1.90;;;15.40;99.90;;;;;;6149430;23;20527;-72
2023/03/23 10:26:38;;;;;;;2.10;1.60;;;15.40;99.90;;;;;;6136261;23;20456;-72
2023/03/23 10:29:16;;;;;;;1.33;1.23;;;15.40;99.90;;;;;;6149411;23;21017;-73
2023/03/23 10:31:47;;;;;;;2.27;1.50;;;15.50;99.90;;;;;;6149909;23;20496;-72
2023/03/23 10:34:19;;;;;;;1.63;1.53;;;15.50;99.90;;;;;;6130413;23;20857;-72
2023/03/23 10:36:57;;;;;;;1.80;1.70;;;15.60;99.90;;;;;;6119954;23;20441;-73
2023/03/23 10:39:30;;;;;;;2.03;1.57;;;15.60;99.90;;;;;;6120635;23;20428;-72
2023/03/23 10:42:06;;;;;;;1.77;1.40;;;15.80;99.90;;;;;;6120278;23;20475;-73
2023/03/23 10:44:34;;;;;;;2.20;1.50;;;15.90;99.90;;;;;;6143882;23;20436;-72
2023/03/23 10:47:04;;;;;;;1.73;1.63;;;15.90;99.90;;;;;;6149694;23;20628;-72
2023/03/23 10:49:38;;;;;;;1.70;1.60;;;15.70;99.90;;;;;;6119538;23;20459;-72
2023/03/23 10:52:15;;;;;;;2.03;1.50;;;15.70;99.90;;;;;;6120140;23;20433;-73
2023/03/23 10:54:50;;;;;;;1.50;1.40;;;15.70;99.90;;;;;;6144886;23;20450;-73
2023/03/23 10:57:24;;;;;;;1.70;1.60;;;15.80;99.90;;;;;;6149938;23;20448;-73
2023/03/23 10:59:52;;;;;;;1.73;1.63;;;15.90;99.90;;;;;;6149597;23;20447;-73
2023/03/23 11:02:25;;;;;;;2.17;1.60;;;16.10;99.90;;;;;;6149066;23;20492;-73
2023/03/23 11:05:01;;;;;;;1.33;1.23;;;16.30;99.90;;;;;;6141872;23;20437;-71
2023/03/23 11:07:33;;;;;;;4.20;1.57;;;16.50;99.90;;;;;;6128392;23;20472;-72
2023/03/23 11:10:09;;;;;;;1.57;1.47;;;16.70;99.90;;;;;;6120160;23;20418;-73
2023/03/23 11:12:38;;;;;;;1.40;1.30;;;16.80;99.90;;;;;;6119252;23;20406;-74
2023/03/23 11:15:22;;;;;;;1.67;1.40;;;17.00;99.90;;;;;;6149069;23;20519;-74
2023/03/23 11:17:56;;;;;;;1.50;1.40;;;17.00;99.90;;;;;;6149375;23;20439;-73
2023/03/23 11:20:24;;;;;;;1.70;1.60;;;17.10;99.90;;;;;;6147010;23;20934;-73
2023/03/23 11:22:51;;;;;;;2.03;1.90;;;17.10;99.90;;;;;;6134038;23;20425;-76
2023/03/23 11:25:18;;;;;;;1.83;1.70;;;17.10;99.90;;;;;;6120245;23;20422;-80
2023/03/23 11:27:47;;;;;;;1.50;1.40;;;17.00;99.90;;;;;;6119569;23;20438;-73
2023/03/23 11:30:23;;;;;;;1.40;1.30;;;17.00;99.90;;;;;;6125381;23;20981;-71
2023/03/23 11:32:52;;;;;;;1.63;1.20;;;16.90;99.90;;;;;;6150136;23;20908;-70
2023/03/23 11:35:22;;;;;;;2.37;2.00;;;16.70;99.90;;;;;;6150747;23;20424;-71
2023/03/23 11:37:52;;;;;;;1.83;1.50;;;16.60;99.90;;;;;;6150914;23;20444;-70
2023/03/23 11:40:21;;;;;;;1.50;1.40;;;16.60;99.90;;;;;;6137395;23;20436;-71
2023/03/23 11:42:57;;;;;;;1.70;1.60;;;16.70;99.90;;;;;;6149790;23;20952;-71
2023/03/23 11:45:31;;;;;;;2.20;1.87;;;16.70;99.90;;;;;;6150671;23;20876;-71
2023/03/23 11:48:08;;;;;;;1.73;1.30;;;16.70;99.90;;;;;;6150250;23;20534;-71
2023/03/23 11:50:44;;;;;;;3.20;1.80;;;16.90;99.90;;;;;;6147515;23;20460;-73
2023/03/23 11:53:17;;;;;;;2.03;1.87;;;17.00;99.90;;;;;;6145325;23;20444;-72
2023/03/23 11:55:59;;;;;;;3.13;1.70;;;17.00;99.90;;;;;;6120814;23;20448;-69
2023/03/23 11:58:32;;;;;;;2.80;1.40;;;17.20;99.90;;;;;;6121053;23;20414;-72
2023/03/23 12:01:05;;;;;;;2.80;1.90;;;17.30;99.90;;;;;;6132650;23;20448;-72
2023/03/23 12:03:52;;;;;;;1.43;1.33;;;17.40;99.90;;;;;;6150301;23;20784;-72
2023/03/23 12:06:26;;;;;;;2.00;1.53;;;17.50;99.90;;;;;;6125106;23;20441;-76
2023/03/23 12:09:10;;;;;;;2.33;2.00;;;17.60;99.90;;;;;;6120742;23;20801;-73
2023/03/23 12:11:46;;;;;;;3.57;1.80;;;17.70;99.90;;;;;;6139789;23;20500;-73
2023/03/23 12:14:21;;;;;;;2.27;1.70;;;17.80;99.90;;;;;;6150256;23;20435;-73
2023/03/23 12:16:59;;;;;;;1.60;1.50;;;18.00;99.90;;;;;;6150752;23;20438;-74
2023/03/23 12:19:36;;;;;;;1.77;1.40;;;18.10;99.90;;;;;;6144640;23;20413;-72
2023/03/23 12:22:14;;;;;;;1.83;1.60;;;18.20;99.90;;;;;;6142818;23;20518;-72
2023/03/23 12:24:54;;;;;;;2.80;1.90;;;18.20;99.90;;;;;;6149934;23;20767;-71
2023/03/23 12:27:29;;;;;;;2.07;1.83;;;18.30;99.90;;;;;;6133269;23;20522;-71
2023/03/23 12:30:21;;;;;;;2.13;1.80;;;18.30;99.90;;;;;;6120956;23;20754;-73
2023/03/23 12:33:04;;;;;;;2.10;1.90;;;18.40;99.90;;;;;;6091472;23;20432;-70
2023/03/23 12:35:39;;;;;;;2.53;2.00;;;18.40;99.90;;;;;;6091472;23;20944;-71
2023/03/23 12:38:21;;;;;;;1.70;1.60;;;18.50;99.90;;;;;;6119889;23;20447;-70
2023/03/23 12:41:07;;;;;;;3.13;2.20;;;18.70;99.90;;;;;;6125437;23;20437;-71
2023/03/23 12:43:39;;;;;;;2.37;1.90;;;18.60;99.90;;;;;;6150270;23;20847;-69
2023/03/23 12:46:18;;;;;;;2.60;2.00;;;18.70;99.90;;;;;;6150074;23;20438;-67
2023/03/23 12:48:50;;;;;;;3.23;1.80;;;18.80;99.90;;;;;;6150396;23;20745;-69
2023/03/23 12:51:23;;;;;;;1.90;1.70;;;18.90;99.90;;;;;;6139562;23;20491;-69
2023/03/23 12:53:57;;;;;;;1.93;1.73;;;19.00;99.90;;;;;;6120912;23;20425;-69
2023/03/23 12:56:30;;;;;;;1.90;1.80;;;19.20;99.90;;;;;;6121104;23;20495;-69
2023/03/23 12:59:13;;;;;;;2.40;2.03;;;19.10;99.90;;;;;;6133412;23;20529;-70
2023/03/23 13:01:44;;;;;;;2.30;2.10;;;19.10;99.90;;;;;;6146407;23;20403;-69
2023/03/23 13:04:15;;;;;;;2.40;1.70;;;19.20;99.90;;;;;;6128218;23;20437;-68
2023/03/23 13:06:44;;;;;;;2.77;2.00;;;19.30;99.90;;;;;;6120819;23;20481;-69
2023/03/23 13:09:16;;;;;;;2.93;2.27;;;19.40;99.90;;;;;;6120491;23;20530;-70